Terminal Aerodrome Forecast
Issued by NWS

Home | Current Version | Previous Version | Text Only | Print | Product List | Glossary On
Versions: 1 2 3 4 5 6 7 8 9 10 11 12
000
FTUS42 KGSP 292339
TAFAND
TAF
KAND 292339Z 3000/3024 21005KT P6SM BKN070
     FM300800 29007KT P6SM SCT250
     FM301600 30010G17KT P6SM FEW250
     FM302200 28009KT P6SM SKC=

USA.gov is the U.S. government's official web portal to all federal, state and local government web resources and services.